createdAt,value
2022-08-16T00:02:54.932Z,3.30
2022-08-16T00:05:57.391Z,2.90
2022-08-16T00:08:55.470Z,2.50
2022-08-16T00:11:52.980Z,2.60
2022-08-16T00:14:56.863Z,3.20
2022-08-16T00:17:56.801Z,3.00
2022-08-16T00:20:55.046Z,3.00
2022-08-16T00:23:52.515Z,2.90
2022-08-16T00:26:50.239Z,3.20
2022-08-16T00:29:47.816Z,3.10
2022-08-16T00:32:58.545Z,3.20
2022-08-16T00:35:56.554Z,3.10
2022-08-16T00:38:54.074Z,2.90
2022-08-16T00:41:53.969Z,2.80
2022-08-16T00:44:52.722Z,2.70
2022-08-16T00:47:51.332Z,2.50
2022-08-16T00:50:49.587Z,2.60
2022-08-16T00:53:53.441Z,2.60
2022-08-16T00:56:57.096Z,2.80
2022-08-16T00:59:59.578Z,3.00
2022-08-16T01:02:57.780Z,3.00
2022-08-16T01:05:55.244Z,3.00
2022-08-16T01:08:52.724Z,2.30
2022-08-16T01:11:55.060Z,2.50
2022-08-16T01:14:54.603Z,2.70
2022-08-16T01:17:55.773Z,2.70
2022-08-16T01:20:54.274Z,2.70
2022-08-16T01:23:58.157Z,2.70
2022-08-16T01:26:58.729Z,2.70
2022-08-16T01:30:01.635Z,2.70
2022-08-16T01:33:01.956Z,3.30
2022-08-16T01:38:58.192Z,2.20
2022-08-16T01:41:57.427Z,2.50
2022-08-16T01:44:54.939Z,2.10
2022-08-16T01:47:52.425Z,2.50
2022-08-16T01:51:08.484Z,2.30
2022-08-16T01:54:07.365Z,2.30
2022-08-16T01:57:04.847Z,2.20
2022-08-16T02:00:02.322Z,2.30
2022-08-16T02:02:59.808Z,2.40
2022-08-16T02:05:57.363Z,2.40
2022-08-16T02:08:55.295Z,2.70
2022-08-16T02:11:53.617Z,2.20
2022-08-16T02:14:52.115Z,2.20
2022-08-16T02:17:49.586Z,2.00
2022-08-16T02:20:50.260Z,2.60
2022-08-16T02:23:50.997Z,2.20
2022-08-16T02:26:53.374Z,1.90
2022-08-16T02:29:52.372Z,2.10
2022-08-16T02:33:03.828Z,2.00
2022-08-16T02:36:01.734Z,2.20
2022-08-16T02:39:00.521Z,1.80
2022-08-16T02:41:58.000Z,2.30
2022-08-16T02:44:55.448Z,2.10
2022-08-16T02:48:01.409Z,1.90
2022-08-16T02:51:11.749Z,2.30
2022-08-16T02:54:09.586Z,2.50
2022-08-16T02:57:07.073Z,2.00
2022-08-16T03:00:33.661Z,2.00
2022-08-16T03:03:26.359Z,2.00
2022-08-16T03:06:42.123Z,1.90
2022-08-16T03:09:40.528Z,2.50
2022-08-16T03:12:55.476Z,2.10
2022-08-16T03:15:54.082Z,2.10
2022-08-16T03:18:53.966Z,1.90
2022-08-16T03:21:51.838Z,1.90
2022-08-16T03:24:49.661Z,1.90
2022-08-16T03:27:47.171Z,1.80
2022-08-16T03:30:44.651Z,2.00
2022-08-16T03:33:42.133Z,1.80
2022-08-16T03:36:39.990Z,2.00
2022-08-16T03:39:42.611Z,1.80
2022-08-16T03:43:19.150Z,2.20
2022-08-16T03:45:58.978Z,1.70
2022-08-16T03:48:56.958Z,1.80
2022-08-16T03:51:54.758Z,1.80
2022-08-16T03:54:53.330Z,1.70
2022-08-16T03:57:56.044Z,1.70
2022-08-16T04:00:56.772Z,1.60
2022-08-16T04:03:57.049Z,1.80
2022-08-16T04:06:54.531Z,1.70
2022-08-16T04:09:53.037Z,1.50
2022-08-16T04:12:54.693Z,1.90
2022-08-16T04:15:53.317Z,1.70
2022-08-16T04:18:50.802Z,2.00
2022-08-16T04:21:48.305Z,1.60
2022-08-16T04:24:54.445Z,1.80
2022-08-16T04:27:54.398Z,1.80
2022-08-16T04:30:53.685Z,1.60
2022-08-16T04:33:51.934Z,1.80
2022-08-16T04:36:50.022Z,1.90
2022-08-16T04:39:55.368Z,1.60
2022-08-16T04:42:54.994Z,2.00
2022-08-16T04:45:55.133Z,1.90
2022-08-16T04:48:59.327Z,1.50
2022-08-16T04:51:57.462Z,1.70
2022-08-16T04:54:55.275Z,1.80
2022-08-16T04:57:53.965Z,1.80
2022-08-16T05:00:51.584Z,2.00
2022-08-16T05:04:00.391Z,2.00
2022-08-16T05:06:59.218Z,1.90
2022-08-16T05:09:56.750Z,2.00
2022-08-16T05:12:54.830Z,1.60
2022-08-16T05:15:54.632Z,1.90
2022-08-16T05:18:53.569Z,1.60
2022-08-16T05:21:55.547Z,1.80
2022-08-16T05:24:55.135Z,1.70
2022-08-16T05:27:54.853Z,1.60
2022-08-16T05:30:54.188Z,1.70
2022-08-16T05:33:53.659Z,1.60
2022-08-16T05:36:53.309Z,2.00
2022-08-16T05:39:50.842Z,1.80
2022-08-16T05:42:53.320Z,2.10
2022-08-16T05:45:53.713Z,1.70
2022-08-16T05:48:55.212Z,1.80
2022-08-16T05:55:01.194Z,1.60
2022-08-16T05:57:59.235Z,1.70
2022-08-16T06:00:57.115Z,1.80
2022-08-16T06:03:54.621Z,1.70
2022-08-16T06:06:56.610Z,1.50
2022-08-16T06:09:56.380Z,1.60
2022-08-16T06:12:55.838Z,2.00
2022-08-16T06:15:54.582Z,1.50
2022-08-16T06:18:52.071Z,1.60
2022-08-16T06:21:55.306Z,1.60
2022-08-16T06:24:55.792Z,1.40
2022-08-16T06:27:57.382Z,1.50
2022-08-16T06:30:55.752Z,1.50
2022-08-16T06:33:54.304Z,1.70
2022-08-16T06:36:59.289Z,1.40
2022-08-16T06:39:57.735Z,1.40
2022-08-16T06:42:57.556Z,1.50
2022-08-16T06:45:55.227Z,1.50
2022-08-16T06:48:52.707Z,1.50
2022-08-16T06:51:52.852Z,1.70
2022-08-16T06:55:00.388Z,1.40
2022-08-16T06:57:57.898Z,1.30
2022-08-16T07:00:55.408Z,1.50
2022-08-16T07:03:57.292Z,2.10
2022-08-16T07:06:55.070Z,1.60
2022-08-16T07:09:52.539Z,1.50
2022-08-16T07:13:04.308Z,1.20
2022-08-16T07:16:09.154Z,1.50
2022-08-16T07:19:07.098Z,1.60
2022-08-16T07:22:06.215Z,1.50
2022-08-16T07:25:23.669Z,1.60
2022-08-16T07:28:24.438Z,1.90
2022-08-16T07:31:22.764Z,1.70
2022-08-16T07:34:20.372Z,1.40
2022-08-16T07:37:33.032Z,1.50
2022-08-16T07:40:57.921Z,1.40
2022-08-16T07:43:48.009Z,1.40
2022-08-16T07:46:45.475Z,1.40
2022-08-16T07:49:53.332Z,1.50
2022-08-16T07:52:55.658Z,1.50
2022-08-16T07:55:53.938Z,1.50
2022-08-16T07:58:55.529Z,1.40
2022-08-16T08:01:55.401Z,1.60
2022-08-16T08:04:53.591Z,1.60
2022-08-16T08:07:53.324Z,1.50
2022-08-16T08:10:55.242Z,1.40
2022-08-16T08:13:52.726Z,1.30
2022-08-16T08:16:52.017Z,1.40
2022-08-16T08:19:53.241Z,1.50
2022-08-16T08:22:53.797Z,1.40
2022-08-16T08:25:58.734Z,1.20
2022-08-16T08:29:00.988Z,1.60
2022-08-16T08:31:59.242Z,1.40
2022-08-16T08:35:03.385Z,1.50
2022-08-16T08:38:01.764Z,2.50
2022-08-16T08:40:59.231Z,1.60
2022-08-16T08:43:57.729Z,1.50
2022-08-16T08:47:00.130Z,1.30
2022-08-16T08:49:59.300Z,1.20
2022-08-16T08:52:58.322Z,1.50
2022-08-16T08:55:58.724Z,1.40
2022-08-16T08:58:58.114Z,1.40
2022-08-16T09:01:59.308Z,1.30
2022-08-16T09:04:57.172Z,1.30
2022-08-16T09:08:01.693Z,1.60
2022-08-16T09:11:03.365Z,1.40
2022-08-16T09:14:04.957Z,1.20
2022-08-16T09:17:11.377Z,1.50
2022-08-16T09:20:16.573Z,1.30
2022-08-16T09:23:14.968Z,1.30
2022-08-16T09:26:45.507Z,1.30
2022-08-16T09:29:44.420Z,1.30
2022-08-16T09:32:47.062Z,1.40
2022-08-16T09:35:45.038Z,1.40
2022-08-16T09:38:51.046Z,1.40
2022-08-16T09:42:00.089Z,1.40
2022-08-16T09:45:11.914Z,1.20
2022-08-16T09:48:43.956Z,1.40
2022-08-16T09:51:37.182Z,1.30
2022-08-16T09:54:35.123Z,1.20
2022-08-16T09:57:34.625Z,1.50
2022-08-16T10:00:44.299Z,1.40
2022-08-16T10:04:02.821Z,1.50
2022-08-16T10:09:58.669Z,1.20
2022-08-16T10:13:16.305Z,1.40
2022-08-16T10:19:19.357Z,1.30
2022-08-16T10:22:17.247Z,1.30
2022-08-16T10:27:17.135Z,1.40
2022-08-16T10:28:40.248Z,1.40
2022-08-16T10:31:43.468Z,1.50
2022-08-16T10:34:43.338Z,1.30
2022-08-16T10:37:42.612Z,1.20
2022-08-16T10:40:40.202Z,1.30
2022-08-16T10:43:43.211Z,1.50
2022-08-16T10:46:42.221Z,1.30
2022-08-16T10:49:40.019Z,1.30
2022-08-16T10:55:45.424Z,1.50
2022-08-16T10:58:43.709Z,1.50
2022-08-16T11:01:44.059Z,1.40
2022-08-16T11:07:59.673Z,1.20
2022-08-16T11:11:04.761Z,1.50
2022-08-16T11:14:06.147Z,1.80
2022-08-16T11:17:13.501Z,1.50
2022-08-16T11:23:31.344Z,1.80
2022-08-16T11:26:30.296Z,1.70
2022-08-16T11:29:29.319Z,1.50
2022-08-16T11:32:31.803Z,1.40
2022-08-16T11:36:22.450Z,1.50
2022-08-16T11:38:57.276Z,1.40
2022-08-16T11:41:55.952Z,1.50
2022-08-16T11:44:56.917Z,1.30
2022-08-16T11:47:55.537Z,1.60
2022-08-16T11:50:53.006Z,1.50
2022-08-16T11:53:50.516Z,1.60
2022-08-16T11:56:52.732Z,1.60
2022-08-16T11:59:55.348Z,1.50
2022-08-16T12:02:52.830Z,1.70
2022-08-16T12:05:52.048Z,1.40
2022-08-16T12:08:52.203Z,1.50
2022-08-16T12:11:52.759Z,1.60
2022-08-16T12:14:55.851Z,1.50
2022-08-16T12:17:57.317Z,1.40
2022-08-16T12:20:58.363Z,1.40
2022-08-16T12:23:57.461Z,1.30
2022-08-16T12:26:54.943Z,1.50
2022-08-16T12:29:52.658Z,1.80
2022-08-16T12:32:51.557Z,1.60
2022-08-16T12:35:50.887Z,1.90
2022-08-16T12:38:49.439Z,1.60
2022-08-16T12:41:52.156Z,1.50
2022-08-16T12:44:50.242Z,1.50
2022-08-16T12:48:31.712Z,1.40
2022-08-16T12:51:24.250Z,1.30
2022-08-16T12:54:22.077Z,1.60
2022-08-16T12:57:19.544Z,1.30
2022-08-16T13:00:26.643Z,1.50
2022-08-16T13:03:24.505Z,1.70
2022-08-16T13:06:29.387Z,1.60
2022-08-16T13:09:37.890Z,1.50
2022-08-16T13:12:42.805Z,1.50
2022-08-16T13:15:55.779Z,1.20
2022-08-16T13:18:56.050Z,1.30
2022-08-16T13:21:56.699Z,1.40
2022-08-16T13:24:54.184Z,1.50
2022-08-16T13:28:03.459Z,1.40
2022-08-16T13:31:03.218Z,1.40
2022-08-16T13:34:00.970Z,1.80
2022-08-16T13:37:07.003Z,1.70
2022-08-16T13:40:04.647Z,1.40
2022-08-16T13:43:03.366Z,1.40
2022-08-16T13:46:04.407Z,1.30
2022-08-16T13:49:02.386Z,1.50
2022-08-16T13:52:00.375Z,1.70
2022-08-16T13:54:58.438Z,1.50
2022-08-16T13:58:36.572Z,1.50
2022-08-16T14:01:15.990Z,1.30
2022-08-16T14:04:14.945Z,1.30
2022-08-16T14:07:24.651Z,1.50
2022-08-16T14:10:22.444Z,1.50
2022-08-16T14:13:20.985Z,1.50
2022-08-16T14:16:23.827Z,1.60
2022-08-16T14:19:22.632Z,1.30
2022-08-16T14:22:31.556Z,1.90
2022-08-16T14:25:32.511Z,1.10
2022-08-16T14:28:30.388Z,1.40
2022-08-16T14:31:28.280Z,1.40
2022-08-16T14:34:30.146Z,1.50
2022-08-16T14:37:28.499Z,1.30
2022-08-16T14:43:29.887Z,1.30
2022-08-16T14:46:28.690Z,1.30
2022-08-16T14:49:26.176Z,1.30
2022-08-16T14:52:51.872Z,1.20
2022-08-16T14:55:41.769Z,1.40
2022-08-16T14:58:39.281Z,1.30
2022-08-16T15:01:57.706Z,1.50
2022-08-16T15:04:56.566Z,1.50
2022-08-16T15:07:54.124Z,1.60
2022-08-16T15:10:51.583Z,1.40
2022-08-16T15:13:49.079Z,1.40
2022-08-16T15:16:49.337Z,1.20
2022-08-16T15:19:49.073Z,1.40
2022-08-16T15:22:46.583Z,1.30
2022-08-16T15:25:44.067Z,1.40
2022-08-16T15:28:41.637Z,1.60
2022-08-16T15:31:41.588Z,1.30
2022-08-16T15:34:46.219Z,1.10
2022-08-16T15:37:44.066Z,1.50
2022-08-16T15:40:58.504Z,1.30
2022-08-16T15:44:05.164Z,1.30
2022-08-16T15:47:08.184Z,1.60
2022-08-16T15:50:05.963Z,1.70
2022-08-16T15:53:03.441Z,1.40
2022-08-16T15:56:00.907Z,1.40
2022-08-16T15:58:58.478Z,1.40
2022-08-16T16:01:56.618Z,1.40
2022-08-16T16:04:55.910Z,1.60
2022-08-16T16:07:56.687Z,1.30
2022-08-16T16:11:07.390Z,1.40
2022-08-16T16:14:06.309Z,1.80
2022-08-16T16:17:06.326Z,1.50
2022-08-16T16:20:03.841Z,1.70
2022-08-16T16:23:01.654Z,1.30
2022-08-16T16:25:59.152Z,1.40
2022-08-16T16:29:08.254Z,1.60
2022-08-16T16:32:12.257Z,1.60
2022-08-16T16:35:10.957Z,1.50
2022-08-16T16:38:08.456Z,1.70
2022-08-16T16:41:09.041Z,1.40
2022-08-16T16:44:07.412Z,1.60
2022-08-16T16:47:08.003Z,1.90
2022-08-16T16:50:05.877Z,1.50
2022-08-16T16:53:03.363Z,1.80
2022-08-16T16:56:20.182Z,1.40
2022-08-16T16:59:25.758Z,1.40
2022-08-16T17:02:41.346Z,1.40
2022-08-16T17:05:43.526Z,1.60
2022-08-16T17:08:54.648Z,1.70
2022-08-16T17:11:55.396Z,1.60
2022-08-16T17:14:53.562Z,1.60
2022-08-16T17:18:00.156Z,1.50
2022-08-16T17:20:58.425Z,1.50
2022-08-16T17:23:58.437Z,1.80
2022-08-16T17:26:59.805Z,1.60
2022-08-16T17:30:02.086Z,1.30
2022-08-16T17:33:00.767Z,1.60
2022-08-16T17:35:59.871Z,2.00
2022-08-16T17:38:57.731Z,1.90
2022-08-16T17:41:55.247Z,1.60
2022-08-16T17:44:52.728Z,1.70
2022-08-16T17:47:52.113Z,2.00
2022-08-16T17:50:49.763Z,1.70
2022-08-16T17:53:52.158Z,2.10
2022-08-16T17:56:50.187Z,1.90
2022-08-16T17:59:49.159Z,2.10
2022-08-16T18:02:46.656Z,1.40
2022-08-16T18:05:44.658Z,1.90
2022-08-16T18:08:42.638Z,1.70
2022-08-16T18:11:40.865Z,2.00
2022-08-16T18:14:50.291Z,2.10
2022-08-16T18:21:05.189Z,2.00
2022-08-16T18:24:02.964Z,2.10
2022-08-16T18:27:24.729Z,2.00
2022-08-16T18:30:18.230Z,2.00
2022-08-16T18:33:17.030Z,1.90
2022-08-16T18:36:20.185Z,1.70
2022-08-16T18:39:19.031Z,1.50
2022-08-16T18:42:16.514Z,1.70
2022-08-16T18:45:14.007Z,1.70
2022-08-16T18:48:11.496Z,1.80
2022-08-16T18:51:14.637Z,1.80
2022-08-16T18:54:18.358Z,1.60
2022-08-16T18:57:16.002Z,1.80
2022-08-16T19:00:13.792Z,2.00
2022-08-16T19:03:11.281Z,1.80
2022-08-16T19:06:10.450Z,1.60
2022-08-16T19:09:09.045Z,1.70
2022-08-16T19:12:06.549Z,1.50
2022-08-16T19:15:04.080Z,1.80
2022-08-16T19:18:02.894Z,1.70
2022-08-16T19:21:00.643Z,1.90
2022-08-16T19:23:58.135Z,1.70
2022-08-16T19:26:56.222Z,2.10
2022-08-16T19:29:54.983Z,1.60
2022-08-16T19:32:52.487Z,1.70
2022-08-16T19:35:50.100Z,1.90
2022-08-16T19:38:47.621Z,1.70
2022-08-16T19:41:45.183Z,1.60
2022-08-16T19:44:42.722Z,1.60
2022-08-16T19:47:40.641Z,1.50
2022-08-16T19:50:38.560Z,1.70
2022-08-16T19:53:37.544Z,1.50
2022-08-16T19:56:35.507Z,1.80
2022-08-16T19:59:40.215Z,1.50
2022-08-16T20:02:42.660Z,1.50
2022-08-16T20:05:40.608Z,1.60
2022-08-16T20:08:38.593Z,1.90
2022-08-16T20:11:36.530Z,1.70
2022-08-16T20:14:34.088Z,1.70
2022-08-16T20:17:31.610Z,1.60
2022-08-16T20:20:29.327Z,2.00
2022-08-16T20:23:28.455Z,1.50
2022-08-16T20:26:28.687Z,1.80
2022-08-16T20:29:26.159Z,1.60
2022-08-16T20:32:25.769Z,1.60
2022-08-16T20:35:33.576Z,1.80
2022-08-16T20:38:31.238Z,2.10
2022-08-16T20:41:37.826Z,1.80
2022-08-16T20:44:35.315Z,1.70
2022-08-16T20:47:32.804Z,2.10
2022-08-16T20:50:30.298Z,1.90
2022-08-16T20:53:27.769Z,1.90
2022-08-16T20:56:25.310Z,1.70
2022-08-16T20:59:22.812Z,1.80
2022-08-16T21:02:20.312Z,1.90
2022-08-16T21:05:17.801Z,1.80
2022-08-16T21:08:50.075Z,1.80
2022-08-16T21:11:33.482Z,1.70
2022-08-16T21:14:34.240Z,1.70
2022-08-16T21:17:31.926Z,1.90
2022-08-16T21:20:29.470Z,1.80
2022-08-16T21:23:26.932Z,1.90
2022-08-16T21:26:24.408Z,1.80
2022-08-16T21:29:21.896Z,1.80
2022-08-16T21:32:35.804Z,1.70
2022-08-16T21:35:33.611Z,1.80
2022-08-16T21:38:31.333Z,2.10
2022-08-16T21:41:28.957Z,1.70
2022-08-16T21:44:31.170Z,1.80
2022-08-16T21:47:36.654Z,1.80
2022-08-16T21:50:34.194Z,1.80
2022-08-16T21:53:31.691Z,1.70
2022-08-16T21:56:29.198Z,2.00
2022-08-16T21:59:26.681Z,1.70
2022-08-16T22:02:24.220Z,1.80
2022-08-16T22:05:22.242Z,1.90
2022-08-16T22:08:20.526Z,1.60
2022-08-16T22:11:18.008Z,1.60
2022-08-16T22:14:15.508Z,1.80
2022-08-16T22:17:12.990Z,1.80
2022-08-16T22:20:10.486Z,1.90
2022-08-16T22:23:07.977Z,2.00
2022-08-16T22:26:05.475Z,1.80
2022-08-16T22:29:04.649Z,1.80
2022-08-16T22:32:02.203Z,2.10
2022-08-16T22:34:59.700Z,2.00
2022-08-16T22:38:55.278Z,2.00
2022-08-16T22:41:26.069Z,1.70
2022-08-16T22:44:23.563Z,2.10
2022-08-16T22:47:21.500Z,1.70
2022-08-16T22:50:19.213Z,1.70
2022-08-16T22:53:16.810Z,1.80
2022-08-16T22:56:15.715Z,1.80
2022-08-16T22:59:13.676Z,1.80
2022-08-16T23:02:11.248Z,1.50
2022-08-16T23:05:10.235Z,1.50
2022-08-16T23:08:08.319Z,1.70
2022-08-16T23:11:05.799Z,1.70
2022-08-16T23:14:03.333Z,1.50
2022-08-16T23:17:01.397Z,1.90
2022-08-16T23:19:58.989Z,1.80
2022-08-16T23:23:20.898Z,1.80
2022-08-16T23:26:44.926Z,1.60
2022-08-16T23:29:32.987Z,1.50
2022-08-16T23:32:30.499Z,1.70
2022-08-16T23:35:27.983Z,1.80
2022-08-16T23:38:43.313Z,1.80
2022-08-16T23:41:40.781Z,1.60
2022-08-16T23:44:56.088Z,1.70
2022-08-16T23:47:56.090Z,1.40
2022-08-16T23:50:53.559Z,1.50
2022-08-16T23:53:51.042Z,1.70
2022-08-16T23:56:48.515Z,1.70
2022-08-16T23:59:53.554Z,1.60
